sensor_id;sensor_type;location;lat;lon;timestamp;pressure;altitude;pressure_sealevel;temperature;humidity
78014;BME280;67222;50.182;8.734;2024-01-15T05:30:38;99206.63;;;-1.67;87.72
78014;BME280;67222;50.182;8.734;2024-01-15T05:33:04;99201.38;;;-1.67;87.67
78014;BME280;67222;50.182;8.734;2024-01-15T05:35:29;99206.31;;;-1.64;88.01
78014;BME280;67222;50.182;8.734;2024-01-15T05:37:54;99211.69;;;-1.66;88.28
78014;BME280;67222;50.182;8.734;2024-01-15T05:40:20;99214.81;;;-1.62;88.80
78014;BME280;67222;50.182;8.734;2024-01-15T05:42:45;99215.78;;;-1.63;88.11
78014;BME280;67222;50.182;8.734;2024-01-15T05:45:10;99218.84;;;-1.68;88.59
78014;BME280;67222;50.182;8.734;2024-01-15T05:47:36;99222.13;;;-1.66;88.50
78014;BME280;67222;50.182;8.734;2024-01-15T05:50:01;99215.94;;;-1.65;88.38
78014;BME280;67222;50.182;8.734;2024-01-15T05:52:27;99211.53;;;-1.64;88.96
78014;BME280;67222;50.182;8.734;2024-01-15T05:54:52;99220.84;;;-1.62;89.02
78014;BME280;67222;50.182;8.734;2024-01-15T05:57:18;99211.38;;;-1.63;89.34
78014;BME280;67222;50.182;8.734;2024-01-15T05:59:44;99213.00;;;-1.62;89.06
78014;BME280;67222;50.182;8.734;2024-01-15T06:02:09;99210.56;;;-1.55;89.41
78014;BME280;67222;50.182;8.734;2024-01-15T06:04:35;99212.22;;;-1.54;88.46
78014;BME280;67222;50.182;8.734;2024-01-15T06:07:00;99223.16;;;-1.59;88.74
78014;BME280;67222;50.182;8.734;2024-01-15T06:09:25;99220.84;;;-1.62;89.31
78014;BME280;67222;50.182;8.734;2024-01-15T06:11:51;99223.81;;;-1.57;89.15
78014;BME280;67222;50.182;8.734;2024-01-15T06:14:16;99216.44;;;-1.61;89.32
78014;BME280;67222;50.182;8.734;2024-01-15T06:16:42;99217.09;;;-1.59;88.59
78014;BME280;67222;50.182;8.734;2024-01-15T06:19:07;99218.22;;;-1.62;89.02
78014;BME280;67222;50.182;8.734;2024-01-15T06:21:32;99226.06;;;-1.62;89.10
78014;BME280;67222;50.182;8.734;2024-01-15T06:23:58;99219.69;;;-1.67;89.04
78014;BME280;67222;50.182;8.734;2024-01-15T06:26:23;99220.19;;;-1.64;89.27
78014;BME280;67222;50.182;8.734;2024-01-15T06:28:48;99233.41;;;-1.65;90.22
78014;BME280;67222;50.182;8.734;2024-01-15T06:31:14;99214.75;;;-1.70;90.68
78014;BME280;67222;50.182;8.734;2024-01-15T06:33:39;99223.41;;;-1.70;90.64
78014;BME280;67222;50.182;8.734;2024-01-15T06:36:05;99240.06;;;-1.71;90.86
78014;BME280;67222;50.182;8.734;2024-01-15T06:38:31;99225.19;;;-1.70;91.51
78014;BME280;67222;50.182;8.734;2024-01-15T06:40:56;99233.41;;;-1.65;91.23
78014;BME280;67222;50.182;8.734;2024-01-15T06:43:22;99226.06;;;-1.62;91.23
78014;BME280;67222;50.182;8.734;2024-01-15T06:45:47;99222.31;;;-1.59;91.38
78014;BME280;67222;50.182;8.734;2024-01-15T06:48:12;99225.56;;;-1.65;91.56
78014;BME280;67222;50.182;8.734;2024-01-15T06:50:40;99226.38;;;-1.65;91.75
78014;BME280;67222;50.182;8.734;2024-01-15T06:53:05;99226.22;;;-1.63;92.41
78014;BME280;67222;50.182;8.734;2024-01-15T06:55:30;99222.78;;;-1.64;92.29
78014;BME280;67222;50.182;8.734;2024-01-15T06:57:56;99227.72;;;-1.61;92.49
78014;BME280;67222;50.182;8.734;2024-01-15T07:00:21;99210.16;;;-1.68;92.92
78014;BME280;67222;50.182;8.734;2024-01-15T07:02:46;99207.94;;;-1.63;93.28
78014;BME280;67222;50.182;8.734;2024-01-15T07:05:12;99211.88;;;-1.59;93.75
78014;BME280;67222;50.182;8.734;2024-01-15T07:07:37;99205.31;;;-1.63;93.92
78014;BME280;67222;50.182;8.734;2024-01-15T07:10:03;99209.22;;;-1.67;93.86
78014;BME280;67222;50.182;8.734;2024-01-15T07:12:29;99211.78;;;-1.75;94.22
78014;BME280;67222;50.182;8.734;2024-01-15T07:14:55;99212.09;;;-1.78;94.44
78014;BME280;67222;50.182;8.734;2024-01-15T07:17:21;99214.19;;;-1.82;95.43
78014;BME280;67222;50.182;8.734;2024-01-15T07:19:46;99224.03;;;-1.76;95.46
78014;BME280;67222;50.182;8.734;2024-01-15T07:22:12;99232.50;;;-1.82;95.20
78014;BME280;67222;50.182;8.734;2024-01-15T07:24:37;99216.34;;;-1.77;94.28
78014;BME280;67222;50.182;8.734;2024-01-15T07:27:02;99225.81;;;-1.76;94.85
78014;BME280;67222;50.182;8.734;2024-01-15T07:29:30;99223.44;;;-1.88;94.25
78014;BME280;67222;50.182;8.734;2024-01-15T07:31:55;99230.38;;;-1.78;94.56
78014;BME280;67222;50.182;8.734;2024-01-15T07:34:20;99227.00;;;-1.71;93.96
78014;BME280;67222;50.182;8.734;2024-01-15T07:36:47;99219.69;;;-1.67;93.49
78014;BME280;67222;50.182;8.734;2024-01-15T07:39:12;99219.81;;;-1.69;93.64
78014;BME280;67222;50.182;8.734;2024-01-15T07:41:38;99218.84;;;-1.68;93.33
78014;BME280;67222;50.182;8.734;2024-01-15T07:44:05;99224.59;;;-1.64;93.32
78014;BME280;67222;50.182;8.734;2024-01-15T07:46:30;99224.63;;;-1.56;92.74
78014;BME280;67222;50.182;8.734;2024-01-15T07:48:56;99229.69;;;-1.55;92.71
78014;BME280;67222;50.182;8.734;2024-01-15T07:51:25;99233.13;;;-1.54;92.70
78014;BME280;67222;50.182;8.734;2024-01-15T07:53:52;99235.41;;;-1.51;92.28
78014;BME280;67222;50.182;8.734;2024-01-15T07:56:18;99218.75;;;-1.50;92.49
78014;BME280;67222;50.182;8.734;2024-01-15T07:58:43;99215.03;;;-1.47;92.51
78014;BME280;67222;50.182;8.734;2024-01-15T08:01:09;99209.94;;;-1.49;92.46
78014;BME280;67222;50.182;8.734;2024-01-15T08:03:34;99215.72;;;-1.37;92.42
78014;BME280;67222;50.182;8.734;2024-01-15T08:05:59;99220.13;;;-1.38;91.86
78014;BME280;67222;50.182;8.734;2024-01-15T08:08:25;99216.84;;;-1.40;92.29
78014;BME280;67222;50.182;8.734;2024-01-15T08:10:53;99223.06;;;-1.41;92.74
78014;BME280;67222;50.182;8.734;2024-01-15T08:13:19;99221.78;;;-1.37;93.33
78014;BME280;67222;50.182;8.734;2024-01-15T08:15:45;99210.84;;;-1.32;93.33
78014;BME280;67222;50.182;8.734;2024-01-15T08:18:10;99211.53;;;-1.30;93.78
78014;BME280;67222;50.182;8.734;2024-01-15T08:20:35;99216.44;;;-1.27;93.50
78014;BME280;67222;50.182;8.734;2024-01-15T08:23:01;99213.66;;;-1.26;93.23
78014;BME280;67222;50.182;8.734;2024-01-15T08:25:26;99215.28;;;-1.25;93.01
78014;BME280;67222;50.182;8.734;2024-01-15T08:27:52;99209.09;;;-1.24;93.09
78014;BME280;67222;50.182;8.734;2024-01-15T08:30:17;99204.34;;;-1.20;92.72
78014;BME280;67222;50.182;8.734;2024-01-15T08:32:44;99207.13;;;-1.22;92.75
78014;BME280;67222;50.182;8.734;2024-01-15T08:35:10;99202.56;;;-1.19;92.35
78014;BME280;67222;50.182;8.734;2024-01-15T08:37:35;99204.19;;;-1.18;91.98
78014;BME280;67222;50.182;8.734;2024-01-15T08:40:00;99203.25;;;-1.09;91.81
78014;BME280;67222;50.182;8.734;2024-01-15T08:42:26;99192.13;;;-1.11;91.68
78014;BME280;67222;50.182;8.734;2024-01-15T08:44:51;99203.69;;;-1.22;91.69
78014;BME280;67222;50.182;8.734;2024-01-15T08:47:16;99205.16;;;-1.19;91.67
78014;BME280;67222;50.182;8.734;2024-01-15T08:49:42;99206.16;;;-1.12;92.34
78014;BME280;67222;50.182;8.734;2024-01-15T08:52:09;99210.44;;;-1.11;91.84
78014;BME280;67222;50.182;8.734;2024-01-15T08:54:35;99213.34;;;-1.14;92.30
78014;BME280;67222;50.182;8.734;2024-01-15T08:57:00;99217.00;;;-1.07;91.53
78014;BME280;67222;50.182;8.734;2024-01-15T08:59:25;99208.50;;;-1.01;91.18
78014;BME280;67222;50.182;8.734;2024-01-15T09:01:52;99201.47;;;-1.01;91.18
78014;BME280;67222;50.182;8.734;2024-01-15T09:04:17;99200.31;;;-0.98;91.55
78014;BME280;67222;50.182;8.734;2024-01-15T09:06:45;99196.56;;;-1.04;91.14
78014;BME280;67222;50.182;8.734;2024-01-15T09:09:11;99208.00;;;-1.05;91.20
78014;BME280;67222;50.182;8.734;2024-01-15T09:11:37;99204.25;;;-1.02;90.34
78014;BME280;67222;50.182;8.734;2024-01-15T09:14:02;99189.53;;;-1.03;90.08
78014;BME280;67222;50.182;8.734;2024-01-15T09:16:28;99190.84;;;-0.99;89.66
78014;BME280;67222;50.182;8.734;2024-01-15T09:18:53;99186.75;;;-0.94;89.71
78014;BME280;67222;50.182;8.734;2024-01-15T09:21:18;99190.88;;;-0.75;88.96
78014;BME280;67222;50.182;8.734;2024-01-15T09:23:44;99188.28;;;-0.67;88.17
78014;BME280;67222;50.182;8.734;2024-01-15T09:26:09;99193.38;;;-0.49;87.53
78014;BME280;67222;50.182;8.734;2024-01-15T09:28:34;99202.69;;;-0.38;87.26
78014;BME280;67222;50.182;8.734;2024-01-15T09:31:00;99198.91;;;-0.19;86.83
78014;BME280;67222;50.182;8.734;2024-01-15T09:33:25;99195.47;;;-0.04;86.12
78014;BME280;67222;50.182;8.734;2024-01-15T09:35:50;99189.88;;;0.08;84.89
78014;BME280;67222;50.182;8.734;2024-01-15T09:38:16;99191.66;;;0.23;83.97
78014;BME280;67222;50.182;8.734;2024-01-15T09:40:45;99197.50;;;0.34;83.48
78014;BME280;67222;50.182;8.734;2024-01-15T09:43:11;99188.97;;;0.48;84.01
78014;BME280;67222;50.182;8.734;2024-01-15T09:45:37;99190.72;;;0.55;83.24
78014;BME280;67222;50.182;8.734;2024-01-15T09:48:03;99197.50;;;0.42;82.31
78014;BME280;67222;50.182;8.734;2024-01-15T09:50:29;99185.06;;;0.36;82.72
78014;BME280;67222;50.182;8.734;2024-01-15T09:52:54;99186.69;;;0.37;82.92
78014;BME280;67222;50.182;8.734;2024-01-15T09:55:19;99185.72;;;0.38;82.08
78014;BME280;67222;50.182;8.734;2024-01-15T09:57:45;99185.56;;;0.31;82.33
78014;BME280;67222;50.182;8.734;2024-01-15T10:00:11;99170.47;;;0.33;82.66
78014;BME280;67222;50.182;8.734;2024-01-15T10:02:37;99163.25;;;0.35;82.64
78014;BME280;67222;50.182;8.734;2024-01-15T10:05:03;99164.91;;;0.36;82.68
78014;BME280;67222;50.182;8.734;2024-01-15T10:07:29;99167.81;;;0.49;82.39
78014;BME280;67222;50.182;8.734;2024-01-15T10:09:54;99166.81;;;0.50;81.92
78014;BME280;67222;50.182;8.734;2024-01-15T10:12:21;99159.56;;;0.60;82.11
78014;BME280;67222;50.182;8.734;2024-01-15T10:14:47;99158.59;;;0.62;80.81
78014;BME280;67222;50.182;8.734;2024-01-15T10:17:14;99153.34;;;0.62;81.51
78014;BME280;67222;50.182;8.734;2024-01-15T10:19:45;99141.59;;;0.49;82.33
78014;BME280;67222;50.182;8.734;2024-01-15T10:22:13;99154.34;;;0.52;82.34
78014;BME280;67222;50.182;8.734;2024-01-15T10:24:40;99141.81;;;0.32;82.20
78014;BME280;67222;50.182;8.734;2024-01-15T10:27:09;99150.47;;;0.40;82.77
78014;BME280;67222;50.182;8.734;2024-01-15T10:29:35;99140.31;;;0.37;82.69
78014;BME280;67222;50.182;8.734;2024-01-15T10:32:07;99132.13;;;0.40;82.76
78014;BME280;67222;50.182;8.734;2024-01-15T10:34:39;99135.91;;;0.38;83.17
78014;BME280;67222;50.182;8.734;2024-01-15T10:37:07;99131.44;;;0.46;82.54
78014;BME280;67222;50.182;8.734;2024-01-15T10:39:32;99118.44;;;0.53;81.90
78014;BME280;67222;50.182;8.734;2024-01-15T10:41:58;99126.00;;;0.56;81.87
78014;BME280;67222;50.182;8.734;2024-01-15T10:44:25;99122.53;;;0.55;82.19
78014;BME280;67222;50.182;8.734;2024-01-15T10:46:50;99119.09;;;0.55;81.65
78014;BME280;67222;50.182;8.734;2024-01-15T10:49:16;99117.09;;;0.65;81.62
78014;BME280;67222;50.182;8.734;2024-01-15T10:51:44;99119.00;;;0.71;81.26
78014;BME280;67222;50.182;8.734;2024-01-15T10:54:10;99125.78;;;0.66;81.29
78014;BME280;67222;50.182;8.734;2024-01-15T10:56:37;99124.22;;;0.79;81.28
78014;BME280;67222;50.182;8.734;2024-01-15T10:59:03;99106.56;;;0.96;80.56
78014;BME280;67222;50.182;8.734;2024-01-15T11:01:30;99102.19;;;1.11;79.83
78014;BME280;67222;50.182;8.734;2024-01-15T11:03:56;99100.69;;;1.17;79.72
78014;BME280;67222;50.182;8.734;2024-01-15T11:06:24;99090.00;;;1.18;79.92
78014;BME280;67222;50.182;8.734;2024-01-15T11:08:52;99087.03;;;1.21;80.02
78014;BME280;67222;50.182;8.734;2024-01-15T11:11:18;99083.25;;;1.39;78.88
78014;BME280;67222;50.182;8.734;2024-01-15T11:13:46;99069.00;;;1.56;79.01
78014;BME280;67222;50.182;8.734;2024-01-15T11:16:13;99093.44;;;1.57;78.76
78014;BME280;67222;50.182;8.734;2024-01-15T11:18:45;99090.00;;;1.56;78.25
78014;BME280;67222;50.182;8.734;2024-01-15T11:21:26;99088.91;;;1.65;77.87
78014;BME280;67222;50.182;8.734;2024-01-15T11:23:55;99091.47;;;1.73;77.52
78014;BME280;67222;50.182;8.734;2024-01-15T11:26:44;99075.16;;;1.63;77.41
78014;BME280;67222;50.182;8.734;2024-01-15T11:29:29;99081.03;;;1.65;77.55
78014;BME280;67222;50.182;8.734;2024-01-15T11:34:20;99083.84;;;1.49;78.41
78014;BME280;67222;50.182;8.734;2024-01-15T11:41:51;99055.88;;;1.18;80.32
78014;BME280;67222;50.182;8.734;2024-01-15T11:44:17;99068.28;;;1.25;80.75
78014;BME280;67222;50.182;8.734;2024-01-15T11:46:57;99068.47;;;1.23;80.34
78014;BME280;67222;50.182;8.734;2024-01-15T11:52:20;99062.34;;;1.45;80.38
78014;BME280;67222;50.182;8.734;2024-01-15T11:57:51;99059.84;;;1.67;78.63
78014;BME280;67222;50.182;8.734;2024-01-15T12:00:18;99067.44;;;2.21;76.74
78014;BME280;67222;50.182;8.734;2024-01-15T12:02:46;99066.19;;;2.17;77.22
78014;BME280;67222;50.182;8.734;2024-01-15T12:05:17;99067.94;;;1.95;77.65
78014;BME280;67222;50.182;8.734;2024-01-15T12:07:44;99068.25;;;1.62;79.63
78014;BME280;67222;50.182;8.734;2024-01-15T12:15:07;99068.47;;;1.75;81.30
78014;BME280;67222;50.182;8.734;2024-01-15T12:17:34;99073.91;;;1.89;80.55
78014;BME280;67222;50.182;8.734;2024-01-15T12:19:59;99068.91;;;1.79;80.98
78014;BME280;67222;50.182;8.734;2024-01-15T12:22:25;99075.53;;;1.75;82.32
78014;BME280;67222;50.182;8.734;2024-01-15T12:24:52;99076.97;;;1.63;82.86
78014;BME280;67222;50.182;8.734;2024-01-15T12:27:18;99075.41;;;1.54;83.21
78014;BME280;67222;50.182;8.734;2024-01-15T12:29:43;99089.69;;;1.36;82.43
78014;BME280;67222;50.182;8.734;2024-01-15T12:32:08;99084.81;;;1.33;82.70
78014;BME280;67222;50.182;8.734;2024-01-15T12:34:34;99080.22;;;1.27;83.33
78014;BME280;67222;50.182;8.734;2024-01-15T12:36:59;99083.13;;;1.17;83.06
78014;BME280;67222;50.182;8.734;2024-01-15T12:39:25;99086.91;;;1.15;83.07
78014;BME280;67222;50.182;8.734;2024-01-15T12:41:51;99078.03;;;1.16;82.72
78014;BME280;67222;50.182;8.734;2024-01-15T12:44:16;99083.13;;;1.17;83.61
78014;BME280;67222;50.182;8.734;2024-01-15T12:46:42;99081.22;;;1.26;82.18
78014;BME280;67222;50.182;8.734;2024-01-15T12:49:08;99073.00;;;1.29;81.58
78014;BME280;67222;50.182;8.734;2024-01-15T12:51:36;99074.28;;;1.33;81.85
78014;BME280;67222;50.182;8.734;2024-01-15T12:54:02;99070.22;;;1.45;81.21
78014;BME280;67222;50.182;8.734;2024-01-15T12:56:27;99069.63;;;1.58;81.40
78014;BME280;67222;50.182;8.734;2024-01-15T12:58:52;99080.13;;;1.58;80.87
78014;BME280;67222;50.182;8.734;2024-01-15T13:01:17;99089.28;;;1.62;80.27
78014;BME280;67222;50.182;8.734;2024-01-15T13:03:43;99089.28;;;1.62;80.43
78014;BME280;67222;50.182;8.734;2024-01-15T13:06:08;99089.22;;;1.70;80.30
78014;BME280;67222;50.182;8.734;2024-01-15T13:08:33;99074.72;;;1.74;80.55
78014;BME280;67222;50.182;8.734;2024-01-15T13:10:59;99090.13;;;1.92;79.06
78014;BME280;67222;50.182;8.734;2024-01-15T13:13:24;99095.47;;;2.13;77.94
78014;BME280;67222;50.182;8.734;2024-01-15T13:15:49;99089.06;;;2.88;75.27
78014;BME280;67222;50.182;8.734;2024-01-15T13:18:15;99083.88;;;3.93;70.70
78014;BME280;67222;50.182;8.734;2024-01-15T13:20:41;99086.44;;;4.21;68.70
78014;BME280;67222;50.182;8.734;2024-01-15T13:23:06;99076.66;;;3.81;69.95
78014;BME280;67222;50.182;8.734;2024-01-15T13:25:31;99079.41;;;3.38;71.19
78014;BME280;67222;50.182;8.734;2024-01-15T13:27:58;99077.97;;;2.93;72.31
78014;BME280;67222;50.182;8.734;2024-01-15T13:30:24;99082.16;;;2.66;74.06
78014;BME280;67222;50.182;8.734;2024-01-15T13:32:49;99082.38;;;2.50;74.20
78014;BME280;67222;50.182;8.734;2024-01-15T13:35:14;99081.88;;;2.25;74.48
78014;BME280;67222;50.182;8.734;2024-01-15T13:37:40;99098.38;;;2.04;76.09
78014;BME280;67222;50.182;8.734;2024-01-15T13:40:07;99098.91;;;1.99;76.56
78014;BME280;67222;50.182;8.734;2024-01-15T13:42:34;99098.47;;;2.10;75.72
78014;BME280;67222;50.182;8.734;2024-01-15T13:45:00;99096.28;;;2.14;75.93
78014;BME280;67222;50.182;8.734;2024-01-15T13:47:25;99091.41;;;2.11;76.54
78014;BME280;67222;50.182;8.734;2024-01-15T13:49:50;99089.03;;;2.16;76.55
78014;BME280;67222;50.182;8.734;2024-01-15T13:52:16;99093.47;;;2.30;76.04
78014;BME280;67222;50.182;8.734;2024-01-15T13:54:41;99102.16;;;2.46;75.24
78014;BME280;67222;50.182;8.734;2024-01-15T13:57:07;99110.97;;;2.38;75.08
78014;BME280;67222;50.182;8.734;2024-01-15T13:59:32;99102.09;;;2.24;76.23
78014;BME280;67222;50.182;8.734;2024-01-15T14:01:58;99094.38;;;2.23;76.35
78014;BME280;67222;50.182;8.734;2024-01-15T14:04:23;99104.19;;;2.29;74.95
78014;BME280;67222;50.182;8.734;2024-01-15T14:06:48;99113.16;;;2.20;76.09
78014;BME280;67222;50.182;8.734;2024-01-15T14:09:14;99111.44;;;2.12;76.45
78014;BME280;67222;50.182;8.734;2024-01-15T14:11:39;99113.16;;;2.05;76.37
78014;BME280;67222;50.182;8.734;2024-01-15T14:14:05;99123.03;;;2.03;75.85
78014;BME280;67222;50.182;8.734;2024-01-15T14:16:30;99126.47;;;2.03;76.24
78014;BME280;67222;50.182;8.734;2024-01-15T14:18:55;99126.03;;;2.00;76.60
78014;BME280;67222;50.182;8.734;2024-01-15T14:21:21;99126.84;;;2.00;75.20
78014;BME280;67222;50.182;8.734;2024-01-15T14:23:46;99140.44;;;1.89;76.56
78014;BME280;67222;50.182;8.734;2024-01-15T14:26:11;99138.19;;;1.86;76.58
78014;BME280;67222;50.182;8.734;2024-01-15T14:28:37;99145.34;;;1.92;75.94
78014;BME280;67222;50.182;8.734;2024-01-15T14:31:02;99135.00;;;1.91;76.96
78014;BME280;67222;50.182;8.734;2024-01-15T14:33:28;99142.97;;;1.97;76.62
78014;BME280;67222;50.182;8.734;2024-01-15T14:35:53;99144.78;;;1.97;75.99
78014;BME280;67222;50.182;8.734;2024-01-15T14:38:19;99157.94;;;1.97;75.56
78014;BME280;67222;50.182;8.734;2024-01-15T14:40:45;99154.41;;;1.90;75.61
78014;BME280;67222;50.182;8.734;2024-01-15T14:43:10;99150.13;;;1.89;75.26
78014;BME280;67222;50.182;8.734;2024-01-15T14:45:36;99160.75;;;1.95;74.73
78014;BME280;67222;50.182;8.734;2024-01-15T14:48:01;99158.56;;;1.99;75.25
78014;BME280;67222;50.182;8.734;2024-01-15T14:50:26;99158.19;;;2.02;75.28
78014;BME280;67222;50.182;8.734;2024-01-15T14:52:52;99147.97;;;2.07;74.10
78014;BME280;67222;50.182;8.734;2024-01-15T14:55:17;99159.94;;;2.09;74.37
78014;BME280;67222;50.182;8.734;2024-01-15T14:57:42;99154.69;;;2.09;73.97
78014;BME280;67222;50.182;8.734;2024-01-15T15:00:08;99169.84;;;2.07;73.79
78014;BME280;67222;50.182;8.734;2024-01-15T15:02:35;99168.03;;;2.08;72.93
78014;BME280;67222;50.182;8.734;2024-01-15T15:05:02;99166.28;;;2.00;73.24
78014;BME280;67222;50.182;8.734;2024-01-15T15:07:27;99167.63;;;1.96;72.31
78014;BME280;67222;50.182;8.734;2024-01-15T15:09:52;99168.84;;;2.08;72.57
78014;BME280;67222;50.182;8.734;2024-01-15T15:12:18;99181.41;;;1.98;72.98
78014;BME280;67222;50.182;8.734;2024-01-15T15:14:43;99171.06;;;1.97;73.47
78014;BME280;67222;50.182;8.734;2024-01-15T15:17:09;99176.69;;;1.94;73.12
78014;BME280;67222;50.182;8.734;2024-01-15T15:19:37;99181.94;;;1.94;73.80
78014;BME280;67222;50.182;8.734;2024-01-15T15:22:03;99200.09;;;1.89;73.90
78014;BME280;67222;50.182;8.734;2024-01-15T15:24:28;99198.31;;;1.81;74.54
78014;BME280;67222;50.182;8.734;2024-01-15T15:26:53;99207.31;;;1.87;73.97
78014;BME280;67222;50.182;8.734;2024-01-15T15:29:19;99202.41;;;1.83;74.68
78014;BME280;67222;50.182;8.734;2024-01-15T15:31:44;99209.19;;;1.78;74.44
78014;BME280;67222;50.182;8.734;2024-01-15T15:34:10;99210.00;;;1.78;74.25
78014;BME280;67222;50.182;8.734;2024-01-15T15:36:35;99203.13;;;1.77;74.66
78014;BME280;67222;50.182;8.734;2024-01-15T15:39:01;99212.53;;;1.72;75.04
78014;BME280;67222;50.182;8.734;2024-01-15T15:41:26;99220.00;;;1.60;75.01
78014;BME280;67222;50.182;8.734;2024-01-15T15:43:53;99223.63;;;1.59;75.42
78014;BME280;67222;50.182;8.734;2024-01-15T15:46:18;99227.88;;;1.60;75.30
78014;BME280;67222;50.182;8.734;2024-01-15T15:48:44;99218.19;;;1.61;75.01
78014;BME280;67222;50.182;8.734;2024-01-15T15:51:09;99229.06;;;1.58;75.35
78014;BME280;67222;50.182;8.734;2024-01-15T15:53:35;99244.28;;;1.62;74.67
78014;BME280;67222;50.182;8.734;2024-01-15T15:56:00;99253.22;;;1.53;75.62
78014;BME280;67222;50.182;8.734;2024-01-15T15:58:25;99260.16;;;1.46;76.55
78014;BME280;67222;50.182;8.734;2024-01-15T16:00:50;99256.25;;;1.42;76.33
78014;BME280;67222;50.182;8.734;2024-01-15T16:03:16;99260.69;;;1.41;77.29
78014;BME280;67222;50.182;8.734;2024-01-15T16:05:41;99266.13;;;1.40;77.69
78014;BME280;67222;50.182;8.734;2024-01-15T16:08:06;99269.09;;;1.37;78.70
78014;BME280;67222;50.182;8.734;2024-01-15T16:10:32;99262.56;;;1.33;78.10
78014;BME280;67222;50.182;8.734;2024-01-15T16:12:57;99262.88;;;1.30;78.61
78014;BME280;67222;50.182;8.734;2024-01-15T16:15:22;99271.41;;;1.32;77.95
78014;BME280;67222;50.182;8.734;2024-01-15T16:17:51;99261.91;;;1.31;77.96
78014;BME280;67222;50.182;8.734;2024-01-15T16:20:17;99272.09;;;1.26;77.26
78014;BME280;67222;50.182;8.734;2024-01-15T16:22:42;99273.06;;;1.33;76.84
78014;BME280;67222;50.182;8.734;2024-01-15T16:25:08;99282.75;;;1.32;76.10
78014;BME280;67222;50.182;8.734;2024-01-15T16:27:34;99285.22;;;1.26;77.17
78014;BME280;67222;50.182;8.734;2024-01-15T16:29:59;99290.13;;;1.29;76.45
78014;BME280;67222;50.182;8.734;2024-01-15T16:32:25;99292.47;;;1.24;76.80
78014;BME280;67222;50.182;8.734;2024-01-15T16:34:50;99296.53;;;1.26;76.15
78014;BME280;67222;50.182;8.734;2024-01-15T16:37:16;99298.97;;;1.36;75.62
78014;BME280;67222;50.182;8.734;2024-01-15T16:39:41;99297.34;;;1.27;76.10
78014;BME280;67222;50.182;8.734;2024-01-15T16:42:06;99321.34;;;1.24;75.85
78014;BME280;67222;50.182;8.734;2024-01-15T16:44:34;99308.72;;;1.19;76.14
78014;BME280;67222;50.182;8.734;2024-01-15T16:46:59;99315.97;;;1.17;76.11
78014;BME280;67222;50.182;8.734;2024-01-15T16:49:26;99322.84;;;1.18;76.20
78014;BME280;67222;50.182;8.734;2024-01-15T16:51:51;99320.00;;;1.28;74.96
78014;BME280;67222;50.182;8.734;2024-01-15T16:54:17;99321.34;;;1.24;75.61
78014;BME280;67222;50.182;8.734;2024-01-15T16:56:43;99324.44;;;1.27;75.38
78014;BME280;67222;50.182;8.734;2024-01-15T16:59:08;99331.81;;;1.32;75.28
78014;BME280;67222;50.182;8.734;2024-01-15T17:01:33;99335.75;;;1.36;75.28
78014;BME280;67222;50.182;8.734;2024-01-15T17:03:59;99343.63;;;1.36;75.07
78014;BME280;67222;50.182;8.734;2024-01-15T17:06:24;99334.75;;;1.29;74.72
78014;BME280;67222;50.182;8.734;2024-01-15T17:08:49;99344.16;;;1.23;75.40
78014;BME280;67222;50.182;8.734;2024-01-15T17:11:14;99350.41;;;1.22;74.72
78014;BME280;67222;50.182;8.734;2024-01-15T17:13:40;99355.13;;;1.27;74.08
78014;BME280;67222;50.182;8.734;2024-01-15T17:16:05;99361.03;;;1.29;74.55
78014;BME280;67222;50.182;8.734;2024-01-15T17:18:31;99359.06;;;1.31;74.18
78014;BME280;67222;50.182;8.734;2024-01-15T17:20:56;99356.59;;;1.29;74.69
78014;BME280;67222;50.182;8.734;2024-01-15T17:23:22;99361.69;;;1.31;74.66
78014;BME280;67222;50.182;8.734;2024-01-15T17:25:48;99378.91;;;1.33;74.82
78014;BME280;67222;50.182;8.734;2024-01-15T17:28:13;99364.16;;;1.32;75.66
78014;BME280;67222;50.182;8.734;2024-01-15T17:30:38;99376.47;;;1.24;76.06
78014;BME280;67222;50.182;8.734;2024-01-15T17:33:04;99381.09;;;1.21;76.73
78014;BME280;67222;50.182;8.734;2024-01-15T17:35:29;99391.09;;;1.18;77.24
78014;BME280;67222;50.182;8.734;2024-01-15T17:37:55;99403.38;;;1.26;76.72
78014;BME280;67222;50.182;8.734;2024-01-15T17:40:20;99404.06;;;1.19;77.31
78014;BME280;67222;50.182;8.734;2024-01-15T17:42:47;99405.41;;;1.15;77.13
78014;BME280;67222;50.182;8.734;2024-01-15T17:45:14;99409.66;;;1.16;77.23
78014;BME280;67222;50.182;8.734;2024-01-15T17:47:40;99417.38;;;1.18;77.74
78014;BME280;67222;50.182;8.734;2024-01-15T17:50:06;99417.19;;;1.19;77.47
78014;BME280;67222;50.182;8.734;2024-01-15T17:52:33;99420.97;;;1.17;76.85
78014;BME280;67222;50.182;8.734;2024-01-15T17:54:58;99413.28;;;1.15;77.25
78014;BME280;67222;50.182;8.734;2024-01-15T17:57:23;99426.06;;;1.18;77.32
78014;BME280;67222;50.182;8.734;2024-01-15T17:59:48;99415.25;;;1.13;77.47
78014;BME280;67222;50.182;8.734;2024-01-15T18:02:14;99424.59;;;1.16;78.16
78014;BME280;67222;50.182;8.734;2024-01-15T18:04:39;99427.38;;;1.14;77.40
78014;BME280;67222;50.182;8.734;2024-01-15T18:07:04;99437.56;;;1.09;77.81
78014;BME280;67222;50.182;8.734;2024-01-15T18:09:29;99425.75;;;1.05;77.29
78014;BME280;67222;50.182;8.734;2024-01-15T18:11:55;99441.50;;;1.05;77.57
78014;BME280;67222;50.182;8.734;2024-01-15T18:14:25;99434.63;;;1.04;77.20
78014;BME280;67222;50.182;8.734;2024-01-15T18:16:50;99440.50;;;1.06;77.95
78014;BME280;67222;50.182;8.734;2024-01-15T18:19:16;99445.75;;;1.06;77.04
78014;BME280;67222;50.182;8.734;2024-01-15T18:21:42;99450.03;;;1.07;76.99
78014;BME280;67222;50.182;8.734;2024-01-15T18:24:07;99451.34;;;1.03;77.79
78014;BME280;67222;50.182;8.734;2024-01-15T18:26:33;99456.13;;;1.00;77.78
78014;BME280;67222;50.182;8.734;2024-01-15T18:28:59;99465.13;;;1.05;78.01
78014;BME280;67222;50.182;8.734;2024-01-15T18:31:24;99483.34;;;1.07;77.82
78014;BME280;67222;50.182;8.734;2024-01-15T18:33:50;99482.19;;;1.09;77.61
78014;BME280;67222;50.182;8.734;2024-01-15T18:36:16;99496.81;;;1.12;77.99
78014;BME280;67222;50.182;8.734;2024-01-15T18:38:41;99494.84;;;1.14;77.60
78014;BME280;67222;50.182;8.734;2024-01-15T18:41:06;99498.94;;;1.16;77.64
78014;BME280;67222;50.182;8.734;2024-01-15T18:43:32;99504.81;;;1.10;77.56
78014;BME280;67222;50.182;8.734;2024-01-15T18:45:58;99501.88;;;1.13;78.16
78014;BME280;67222;50.182;8.734;2024-01-15T18:48:23;99509.75;;;1.13;77.45